sensor_id;sensor_type;location;lat;lon;timestamp;P1;durP1;ratioP1;P2;durP2;ratioP2
66575;SDS011;53428;47.686;16.584;2022-12-24T00:03:53;70.00;;;39.90;;
66575;SDS011;53428;47.686;16.584;2022-12-24T00:08:53;74.47;;;43.88;;
66575;SDS011;53428;47.686;16.584;2022-12-24T00:13:52;63.05;;;39.22;;
66575;SDS011;53428;47.686;16.584;2022-12-24T00:18:51;59.20;;;37.15;;
66575;SDS011;53428;47.686;16.584;2022-12-24T00:23:51;59.40;;;31.40;;
66575;SDS011;53428;47.686;16.584;2022-12-24T00:28:50;49.47;;;32.00;;
66575;SDS011;53428;47.686;16.584;2022-12-24T00:33:51;48.70;;;31.00;;
66575;SDS011;53428;47.686;16.584;2022-12-24T00:38:50;50.67;;;28.23;;
66575;SDS011;53428;47.686;16.584;2022-12-24T00:43:53;49.60;;;30.85;;
66575;SDS011;53428;47.686;16.584;2022-12-24T00:48:54;54.00;;;32.42;;
66575;SDS011;53428;47.686;16.584;2022-12-24T00:53:54;68.60;;;37.58;;
66575;SDS011;53428;47.686;16.584;2022-12-24T00:58:54;60.85;;;35.28;;
66575;SDS011;53428;47.686;16.584;2022-12-24T01:03:54;54.45;;;31.48;;
66575;SDS011;53428;47.686;16.584;2022-12-24T01:09:12;55.60;;;32.05;;
66575;SDS011;53428;47.686;16.584;2022-12-24T01:14:11;43.88;;;25.58;;
66575;SDS011;53428;47.686;16.584;2022-12-24T01:19:11;33.95;;;21.25;;
66575;SDS011;53428;47.686;16.584;2022-12-24T01:24:12;30.95;;;20.08;;
66575;SDS011;53428;47.686;16.584;2022-12-24T01:29:13;32.47;;;21.27;;
66575;SDS011;53428;47.686;16.584;2022-12-24T01:34:13;35.15;;;22.10;;
66575;SDS011;53428;47.686;16.584;2022-12-24T01:39:13;36.70;;;21.48;;
66575;SDS011;53428;47.686;16.584;2022-12-24T01:44:19;30.67;;;20.45;;
66575;SDS011;53428;47.686;16.584;2022-12-24T01:49:41;32.97;;;20.85;;
66575;SDS011;53428;47.686;16.584;2022-12-24T01:54:49;28.15;;;17.83;;
66575;SDS011;53428;47.686;16.584;2022-12-24T01:59:52;45.40;;;24.73;;
66575;SDS011;53428;47.686;16.584;2022-12-24T02:10:03;31.23;;;20.52;;
66575;SDS011;53428;47.686;16.584;2022-12-24T02:15:05;13.10;;;9.00;;
66575;SDS011;53428;47.686;16.584;2022-12-24T02:30:47;26.13;;;15.23;;
66575;SDS011;53428;47.686;16.584;2022-12-24T02:36:05;4.85;;;3.78;;
66575;SDS011;53428;47.686;16.584;2022-12-24T02:41:19;2.28;;;2.03;;
66575;SDS011;53428;47.686;16.584;2022-12-24T02:46:24;1.70;;;1.60;;
66575;SDS011;53428;47.686;16.584;2022-12-24T02:51:25;0.80;;;0.70;;
66575;SDS011;53428;47.686;16.584;2022-12-24T02:56:30;0.63;;;0.63;;
66575;SDS011;53428;47.686;16.584;2022-12-24T03:06:58;0.50;;;0.50;;
66575;SDS011;53428;47.686;16.584;2022-12-24T03:12:21;0.20;;;0.20;;
66575;SDS011;53428;47.686;16.584;2022-12-24T03:17:26;0.30;;;0.30;;
66575;SDS011;53428;47.686;16.584;2022-12-24T03:22:26;0.40;;;0.40;;
66575;SDS011;53428;47.686;16.584;2022-12-24T03:27:26;0.90;;;0.70;;
66575;SDS011;53428;47.686;16.584;2022-12-24T03:32:28;0.60;;;0.60;;
66575;SDS011;53428;47.686;16.584;2022-12-24T03:37:30;0.30;;;0.30;;
66575;SDS011;53428;47.686;16.584;2022-12-24T03:42:29;0.40;;;0.40;;
66575;SDS011;53428;47.686;16.584;2022-12-24T03:47:29;0.30;;;0.30;;
66575;SDS011;53428;47.686;16.584;2022-12-24T03:52:29;1.00;;;0.40;;
66575;SDS011;53428;47.686;16.584;2022-12-24T03:57:28;0.57;;;0.55;;
66575;SDS011;53428;47.686;16.584;2022-12-24T04:02:28;2.45;;;0.98;;
66575;SDS011;53428;47.686;16.584;2022-12-24T04:07:27;1.35;;;1.17;;
66575;SDS011;53428;47.686;16.584;2022-12-24T04:12:26;1.90;;;1.10;;
66575;SDS011;53428;47.686;16.584;2022-12-24T04:17:25;1.45;;;0.93;;
66575;SDS011;53428;47.686;16.584;2022-12-24T04:22:25;0.90;;;0.77;;
66575;SDS011;53428;47.686;16.584;2022-12-24T04:27:24;1.00;;;1.00;;
66575;SDS011;53428;47.686;16.584;2022-12-24T04:32:24;0.60;;;0.60;;
66575;SDS011;53428;47.686;16.584;2022-12-24T04:37:25;0.70;;;0.70;;
66575;SDS011;53428;47.686;16.584;2022-12-24T04:42:24;1.55;;;1.05;;
66575;SDS011;53428;47.686;16.584;2022-12-24T04:47:23;2.72;;;0.73;;
66575;SDS011;53428;47.686;16.584;2022-12-24T04:52:23;2.60;;;0.70;;
66575;SDS011;53428;47.686;16.584;2022-12-24T04:57:22;46.50;;;8.32;;
66575;SDS011;53428;47.686;16.584;2022-12-24T05:02:22;58.08;;;13.43;;
66575;SDS011;53428;47.686;16.584;2022-12-24T05:07:21;75.55;;;16.42;;
66575;SDS011;53428;47.686;16.584;2022-12-24T05:12:20;11.50;;;2.75;;
66575;SDS011;53428;47.686;16.584;2022-12-24T05:17:20;15.55;;;3.38;;
66575;SDS011;53428;47.686;16.584;2022-12-24T05:22:20;7.80;;;2.72;;
66575;SDS011;53428;47.686;16.584;2022-12-24T05:27:37;2.28;;;1.65;;
66575;SDS011;53428;47.686;16.584;2022-12-24T05:32:36;12.00;;;4.22;;
66575;SDS011;53428;47.686;16.584;2022-12-24T05:37:36;11.38;;;4.05;;
66575;SDS011;53428;47.686;16.584;2022-12-24T05:42:35;6.00;;;2.45;;
66575;SDS011;53428;47.686;16.584;2022-12-24T05:47:34;3.80;;;1.58;;
66575;SDS011;53428;47.686;16.584;2022-12-24T05:52:34;6.50;;;4.00;;
66575;SDS011;53428;47.686;16.584;2022-12-24T05:57:33;3.85;;;3.28;;
66575;SDS011;53428;47.686;16.584;2022-12-24T06:02:32;3.47;;;2.33;;
66575;SDS011;53428;47.686;16.584;2022-12-24T06:07:32;4.00;;;2.80;;
66575;SDS011;53428;47.686;16.584;2022-12-24T06:12:32;7.53;;;3.35;;
66575;SDS011;53428;47.686;16.584;2022-12-24T06:17:31;2.85;;;1.70;;
66575;SDS011;53428;47.686;16.584;2022-12-24T06:22:31;6.82;;;3.75;;
66575;SDS011;53428;47.686;16.584;2022-12-24T06:27:30;11.38;;;3.00;;
66575;SDS011;53428;47.686;16.584;2022-12-24T06:32:30;4.75;;;3.80;;
66575;SDS011;53428;47.686;16.584;2022-12-24T06:37:29;4.55;;;2.08;;
66575;SDS011;53428;47.686;16.584;2022-12-24T06:42:29;2.17;;;1.13;;
66575;SDS011;53428;47.686;16.584;2022-12-24T06:47:28;2.30;;;1.30;;
66575;SDS011;53428;47.686;16.584;2022-12-24T06:52:27;3.38;;;1.00;;
66575;SDS011;53428;47.686;16.584;2022-12-24T06:57:26;19.13;;;10.93;;
66575;SDS011;53428;47.686;16.584;2022-12-24T07:02:26;12.50;;;5.93;;
66575;SDS011;53428;47.686;16.584;2022-12-24T07:07:25;5.95;;;1.90;;
66575;SDS011;53428;47.686;16.584;2022-12-24T07:12:25;4.30;;;2.63;;
66575;SDS011;53428;47.686;16.584;2022-12-24T07:17:24;6.88;;;3.30;;
66575;SDS011;53428;47.686;16.584;2022-12-24T07:22:23;15.45;;;6.20;;
66575;SDS011;53428;47.686;16.584;2022-12-24T07:27:23;4.07;;;2.88;;
66575;SDS011;53428;47.686;16.584;2022-12-24T07:32:22;3.22;;;2.00;;
66575;SDS011;53428;47.686;16.584;2022-12-24T07:37:21;2.55;;;0.95;;
66575;SDS011;53428;47.686;16.584;2022-12-24T07:42:20;1.73;;;0.80;;
66575;SDS011;53428;47.686;16.584;2022-12-24T07:47:20;7.78;;;3.58;;
66575;SDS011;53428;47.686;16.584;2022-12-24T07:52:19;6.03;;;3.10;;
66575;SDS011;53428;47.686;16.584;2022-12-24T07:57:18;7.07;;;3.05;;
66575;SDS011;53428;47.686;16.584;2022-12-24T08:02:18;2.85;;;1.88;;
66575;SDS011;53428;47.686;16.584;2022-12-24T08:07:17;0.80;;;0.80;;
66575;SDS011;53428;47.686;16.584;2022-12-24T08:12:16;2.35;;;1.15;;
66575;SDS011;53428;47.686;16.584;2022-12-24T08:17:15;1.05;;;0.90;;
66575;SDS011;53428;47.686;16.584;2022-12-24T08:22:15;12.10;;;1.65;;
66575;SDS011;53428;47.686;16.584;2022-12-24T08:27:14;11.65;;;5.15;;
66575;SDS011;53428;47.686;16.584;2022-12-24T08:32:14;9.48;;;5.88;;
66575;SDS011;53428;47.686;16.584;2022-12-24T08:37:13;10.13;;;5.78;;
66575;SDS011;53428;47.686;16.584;2022-12-24T08:42:12;15.13;;;7.55;;
66575;SDS011;53428;47.686;16.584;2022-12-24T08:47:11;43.33;;;19.77;;
66575;SDS011;53428;47.686;16.584;2022-12-24T08:52:11;4.63;;;2.92;;
66575;SDS011;53428;47.686;16.584;2022-12-24T08:57:10;6.57;;;3.22;;
66575;SDS011;53428;47.686;16.584;2022-12-24T09:02:10;6.38;;;2.50;;
66575;SDS011;53428;47.686;16.584;2022-12-24T09:07:09;5.43;;;2.38;;
66575;SDS011;53428;47.686;16.584;2022-12-24T09:12:09;1.85;;;1.33;;
66575;SDS011;53428;47.686;16.584;2022-12-24T09:17:08;7.95;;;3.33;;
66575;SDS011;53428;47.686;16.584;2022-12-24T09:22:07;4.60;;;2.13;;
66575;SDS011;53428;47.686;16.584;2022-12-24T09:27:07;9.15;;;1.35;;
66575;SDS011;53428;47.686;16.584;2022-12-24T09:32:06;2.15;;;1.60;;
66575;SDS011;53428;47.686;16.584;2022-12-24T09:37:05;3.15;;;1.67;;
66575;SDS011;53428;47.686;16.584;2022-12-24T09:42:27;7.78;;;2.97;;
66575;SDS011;53428;47.686;16.584;2022-12-24T09:48:33;7.53;;;2.90;;
66575;SDS011;53428;47.686;16.584;2022-12-24T09:53:32;7.53;;;2.50;;
66575;SDS011;53428;47.686;16.584;2022-12-24T09:58:59;4.75;;;2.40;;
66575;SDS011;53428;47.686;16.584;2022-12-24T10:04:01;6.82;;;1.95;;
66575;SDS011;53428;47.686;16.584;2022-12-24T10:14:10;11.68;;;3.70;;
66575;SDS011;53428;47.686;16.584;2022-12-24T10:19:19;4.32;;;2.30;;
66575;SDS011;53428;47.686;16.584;2022-12-24T10:24:49;4.82;;;2.10;;
66575;SDS011;53428;47.686;16.584;2022-12-24T10:29:56;3.67;;;1.33;;
66575;SDS011;53428;47.686;16.584;2022-12-24T10:35:44;4.13;;;1.20;;
66575;SDS011;53428;47.686;16.584;2022-12-24T10:45:38;4.78;;;1.65;;
66575;SDS011;53428;47.686;16.584;2022-12-24T10:50:47;3.72;;;1.67;;
66575;SDS011;53428;47.686;16.584;2022-12-24T10:55:59;2.88;;;1.33;;
66575;SDS011;53428;47.686;16.584;2022-12-24T11:01:02;7.32;;;1.77;;
66575;SDS011;53428;47.686;16.584;2022-12-24T11:06:06;8.43;;;2.00;;
66575;SDS011;53428;47.686;16.584;2022-12-24T11:11:12;10.95;;;5.00;;
66575;SDS011;53428;47.686;16.584;2022-12-24T11:16:28;8.95;;;3.00;;
66575;SDS011;53428;47.686;16.584;2022-12-24T11:26:30;7.07;;;1.77;;
66575;SDS011;53428;47.686;16.584;2022-12-24T11:31:29;7.97;;;1.75;;
66575;SDS011;53428;47.686;16.584;2022-12-24T11:36:31;3.75;;;1.42;;
66575;SDS011;53428;47.686;16.584;2022-12-24T11:41:35;7.60;;;1.10;;
66575;SDS011;53428;47.686;16.584;2022-12-24T11:51:36;4.60;;;1.73;;
66575;SDS011;53428;47.686;16.584;2022-12-24T11:56:45;8.52;;;2.50;;
66575;SDS011;53428;47.686;16.584;2022-12-24T12:02:12;3.90;;;1.85;;
66575;SDS011;53428;47.686;16.584;2022-12-24T12:07:29;5.10;;;1.65;;
66575;SDS011;53428;47.686;16.584;2022-12-24T12:12:33;6.60;;;1.58;;
66575;SDS011;53428;47.686;16.584;2022-12-24T12:17:38;4.65;;;1.63;;
66575;SDS011;53428;47.686;16.584;2022-12-24T12:22:58;5.78;;;1.25;;
66575;SDS011;53428;47.686;16.584;2022-12-24T12:27:59;5.93;;;1.42;;
66575;SDS011;53428;47.686;16.584;2022-12-24T12:33:05;5.72;;;1.60;;
66575;SDS011;53428;47.686;16.584;2022-12-24T12:54:34;8.27;;;3.00;;
66575;SDS011;53428;47.686;16.584;2022-12-24T13:00:27;5.53;;;2.15;;
66575;SDS011;53428;47.686;16.584;2022-12-24T13:15:35;6.32;;;1.65;;
66575;SDS011;53428;47.686;16.584;2022-12-24T13:20:49;4.60;;;1.88;;
66575;SDS011;53428;47.686;16.584;2022-12-24T13:25:51;6.63;;;1.90;;
66575;SDS011;53428;47.686;16.584;2022-12-24T13:31:38;3.45;;;2.15;;
66575;SDS011;53428;47.686;16.584;2022-12-24T13:36:15;3.85;;;2.58;;
66575;SDS011;53428;47.686;16.584;2022-12-24T13:46:45;3.78;;;1.80;;
66575;SDS011;53428;47.686;16.584;2022-12-24T13:51:45;3.95;;;2.60;;
66575;SDS011;53428;47.686;16.584;2022-12-24T13:56:46;2.85;;;1.50;;
66575;SDS011;53428;47.686;16.584;2022-12-24T14:01:45;3.42;;;1.63;;
66575;SDS011;53428;47.686;16.584;2022-12-24T14:06:46;6.07;;;2.30;;
66575;SDS011;53428;47.686;16.584;2022-12-24T14:16:58;4.45;;;1.50;;
66575;SDS011;53428;47.686;16.584;2022-12-24T14:27:28;1.83;;;1.00;;
66575;SDS011;53428;47.686;16.584;2022-12-24T14:32:38;5.57;;;1.20;;
66575;SDS011;53428;47.686;16.584;2022-12-24T14:37:39;3.85;;;1.48;;
66575;SDS011;53428;47.686;16.584;2022-12-24T14:42:57;3.90;;;1.50;;
66575;SDS011;53428;47.686;16.584;2022-12-24T14:53:22;10.93;;;3.25;;
66575;SDS011;53428;47.686;16.584;2022-12-24T14:58:32;10.25;;;3.05;;
66575;SDS011;53428;47.686;16.584;2022-12-24T15:03:34;6.78;;;1.90;;
66575;SDS011;53428;47.686;16.584;2022-12-24T15:08:38;2.92;;;1.20;;
66575;SDS011;53428;47.686;16.584;2022-12-24T15:13:42;9.73;;;2.95;;
66575;SDS011;53428;47.686;16.584;2022-12-24T15:18:45;6.25;;;3.28;;
66575;SDS011;53428;47.686;16.584;2022-12-24T15:23:48;14.48;;;3.90;;
66575;SDS011;53428;47.686;16.584;2022-12-24T15:28:50;12.63;;;3.90;;
66575;SDS011;53428;47.686;16.584;2022-12-24T15:33:51;11.85;;;5.13;;
66575;SDS011;53428;47.686;16.584;2022-12-24T15:38:57;11.48;;;6.40;;
66575;SDS011;53428;47.686;16.584;2022-12-24T15:44:00;11.43;;;6.15;;
66575;SDS011;53428;47.686;16.584;2022-12-24T15:49:02;20.20;;;7.30;;
66575;SDS011;53428;47.686;16.584;2022-12-24T15:54:03;24.75;;;7.32;;
66575;SDS011;53428;47.686;16.584;2022-12-24T16:04:25;10.50;;;5.13;;
66575;SDS011;53428;47.686;16.584;2022-12-24T16:09:40;74.80;;;26.83;;
66575;SDS011;53428;47.686;16.584;2022-12-24T16:14:44;53.97;;;21.30;;
66575;SDS011;53428;47.686;16.584;2022-12-24T16:19:47;22.15;;;10.00;;
66575;SDS011;53428;47.686;16.584;2022-12-24T16:24:49;22.30;;;9.38;;
66575;SDS011;53428;47.686;16.584;2022-12-24T16:29:50;20.13;;;10.70;;
66575;SDS011;53428;47.686;16.584;2022-12-24T16:34:50;29.95;;;11.20;;
66575;SDS011;53428;47.686;16.584;2022-12-24T16:39:49;32.33;;;14.02;;
66575;SDS011;53428;47.686;16.584;2022-12-24T16:44:48;33.10;;;13.10;;
66575;SDS011;53428;47.686;16.584;2022-12-24T16:49:50;28.08;;;13.93;;
66575;SDS011;53428;47.686;16.584;2022-12-24T16:54:49;29.98;;;14.27;;
66575;SDS011;53428;47.686;16.584;2022-12-24T16:59:49;28.00;;;14.98;;
66575;SDS011;53428;47.686;16.584;2022-12-24T17:04:49;34.55;;;16.42;;
66575;SDS011;53428;47.686;16.584;2022-12-24T17:09:49;38.55;;;19.65;;
66575;SDS011;53428;47.686;16.584;2022-12-24T17:14:48;40.78;;;19.85;;
66575;SDS011;53428;47.686;16.584;2022-12-24T17:19:47;33.38;;;17.27;;
66575;SDS011;53428;47.686;16.584;2022-12-24T17:24:47;35.67;;;15.88;;
66575;SDS011;53428;47.686;16.584;2022-12-24T17:29:46;32.95;;;14.25;;
66575;SDS011;53428;47.686;16.584;2022-12-24T17:34:45;20.52;;;9.70;;
66575;SDS011;53428;47.686;16.584;2022-12-24T17:39:45;24.52;;;10.10;;
66575;SDS011;53428;47.686;16.584;2022-12-24T17:44:44;15.95;;;7.00;;
66575;SDS011;53428;47.686;16.584;2022-12-24T17:49:43;19.23;;;8.35;;
66575;SDS011;53428;47.686;16.584;2022-12-24T17:54:43;7.45;;;4.20;;
66575;SDS011;53428;47.686;16.584;2022-12-24T17:59:42;10.98;;;5.78;;
66575;SDS011;53428;47.686;16.584;2022-12-24T18:04:42;9.23;;;4.10;;
66575;SDS011;53428;47.686;16.584;2022-12-24T18:09:44;9.63;;;4.10;;
66575;SDS011;53428;47.686;16.584;2022-12-24T18:14:44;11.65;;;5.28;;
66575;SDS011;53428;47.686;16.584;2022-12-24T18:19:43;13.40;;;5.43;;
66575;SDS011;53428;47.686;16.584;2022-12-24T18:24:42;11.25;;;3.65;;
66575;SDS011;53428;47.686;16.584;2022-12-24T18:29:42;11.73;;;4.68;;
66575;SDS011;53428;47.686;16.584;2022-12-24T18:34:41;14.43;;;5.78;;
66575;SDS011;53428;47.686;16.584;2022-12-24T18:39:42;13.32;;;7.55;;
66575;SDS011;53428;47.686;16.584;2022-12-24T18:44:42;18.30;;;9.50;;
66575;SDS011;53428;47.686;16.584;2022-12-24T18:49:42;22.45;;;8.52;;
66575;SDS011;53428;47.686;16.584;2022-12-24T18:54:41;22.92;;;9.57;;
66575;SDS011;53428;47.686;16.584;2022-12-24T18:59:41;19.48;;;10.25;;
66575;SDS011;53428;47.686;16.584;2022-12-24T19:04:40;15.48;;;10.20;;
66575;SDS011;53428;47.686;16.584;2022-12-24T19:09:39;22.52;;;9.65;;
66575;SDS011;53428;47.686;16.584;2022-12-24T19:14:39;21.85;;;12.98;;
66575;SDS011;53428;47.686;16.584;2022-12-24T19:19:38;17.80;;;9.80;;
66575;SDS011;53428;47.686;16.584;2022-12-24T19:24:38;21.60;;;10.75;;
66575;SDS011;53428;47.686;16.584;2022-12-24T19:29:37;35.50;;;15.63;;
66575;SDS011;53428;47.686;16.584;2022-12-24T19:34:36;31.40;;;15.38;;
66575;SDS011;53428;47.686;16.584;2022-12-24T19:39:36;21.92;;;11.75;;
66575;SDS011;53428;47.686;16.584;2022-12-24T19:44:35;25.92;;;10.27;;
66575;SDS011;53428;47.686;16.584;2022-12-24T19:49:34;20.95;;;11.73;;
66575;SDS011;53428;47.686;16.584;2022-12-24T19:54:33;19.70;;;10.68;;
66575;SDS011;53428;47.686;16.584;2022-12-24T19:59:33;26.85;;;13.85;;
66575;SDS011;53428;47.686;16.584;2022-12-24T20:04:33;33.45;;;15.73;;
66575;SDS011;53428;47.686;16.584;2022-12-24T20:09:32;32.50;;;15.30;;
66575;SDS011;53428;47.686;16.584;2022-12-24T20:14:31;25.60;;;13.32;;
66575;SDS011;53428;47.686;16.584;2022-12-24T20:19:30;25.30;;;10.82;;
66575;SDS011;53428;47.686;16.584;2022-12-24T20:24:30;24.23;;;10.95;;
66575;SDS011;53428;47.686;16.584;2022-12-24T20:29:29;23.33;;;11.27;;
66575;SDS011;53428;47.686;16.584;2022-12-24T20:34:29;23.10;;;10.52;;
66575;SDS011;53428;47.686;16.584;2022-12-24T20:39:28;32.50;;;14.00;;
66575;SDS011;53428;47.686;16.584;2022-12-24T20:44:28;25.10;;;13.10;;
66575;SDS011;53428;47.686;16.584;2022-12-24T20:49:27;39.25;;;20.05;;
66575;SDS011;53428;47.686;16.584;2022-12-24T20:54:26;31.10;;;15.88;;
66575;SDS011;53428;47.686;16.584;2022-12-24T20:59:26;34.28;;;16.48;;
66575;SDS011;53428;47.686;16.584;2022-12-24T21:04:25;33.25;;;15.35;;
66575;SDS011;53428;47.686;16.584;2022-12-24T21:09:24;37.53;;;19.00;;
66575;SDS011;53428;47.686;16.584;2022-12-24T21:14:25;64.35;;;23.08;;
66575;SDS011;53428;47.686;16.584;2022-12-24T21:19:24;29.55;;;13.88;;
66575;SDS011;53428;47.686;16.584;2022-12-24T21:24:24;22.58;;;10.02;;
66575;SDS011;53428;47.686;16.584;2022-12-24T21:29:23;29.48;;;14.20;;
66575;SDS011;53428;47.686;16.584;2022-12-24T21:34:23;28.75;;;13.63;;
66575;SDS011;53428;47.686;16.584;2022-12-24T21:39:22;33.38;;;14.10;;
66575;SDS011;53428;47.686;16.584;2022-12-24T21:44:21;28.15;;;13.70;;
66575;SDS011;53428;47.686;16.584;2022-12-24T21:49:20;19.05;;;10.15;;
66575;SDS011;53428;47.686;16.584;2022-12-24T21:54:43;15.32;;;5.75;;
66575;SDS011;53428;47.686;16.584;2022-12-24T21:59:42;10.55;;;5.13;;
66575;SDS011;53428;47.686;16.584;2022-12-24T22:04:43;13.35;;;5.82;;
66575;SDS011;53428;47.686;16.584;2022-12-24T22:09:43;12.77;;;6.35;;
66575;SDS011;53428;47.686;16.584;2022-12-24T22:15:03;13.15;;;6.03;;
66575;SDS011;53428;47.686;16.584;2022-12-24T22:20:03;20.52;;;8.23;;
66575;SDS011;53428;47.686;16.584;2022-12-24T22:25:03;19.50;;;9.32;;
66575;SDS011;53428;47.686;16.584;2022-12-24T22:30:23;19.45;;;7.90;;
66575;SDS011;53428;47.686;16.584;2022-12-24T22:35:22;13.30;;;7.47;;
66575;SDS011;53428;47.686;16.584;2022-12-24T22:40:22;19.67;;;7.22;;
66575;SDS011;53428;47.686;16.584;2022-12-24T22:45:21;16.10;;;7.65;;
66575;SDS011;53428;47.686;16.584;2022-12-24T22:50:20;12.60;;;7.22;;
66575;SDS011;53428;47.686;16.584;2022-12-24T22:55:20;23.40;;;6.88;;
66575;SDS011;53428;47.686;16.584;2022-12-24T23:00:36;13.68;;;6.35;;
66575;SDS011;53428;47.686;16.584;2022-12-24T23:05:38;12.80;;;6.13;;
66575;SDS011;53428;47.686;16.584;2022-12-24T23:10:38;11.25;;;6.45;;
66575;SDS011;53428;47.686;16.584;2022-12-24T23:15:38;16.92;;;7.40;;
66575;SDS011;53428;47.686;16.584;2022-12-24T23:20:41;78.18;;;38.55;;
66575;SDS011;53428;47.686;16.584;2022-12-24T23:25:46;22.63;;;10.65;;
66575;SDS011;53428;47.686;16.584;2022-12-24T23:30:54;12.48;;;5.45;;
66575;SDS011;53428;47.686;16.584;2022-12-24T23:35:55;18.05;;;6.28;;
66575;SDS011;53428;47.686;16.584;2022-12-24T23:40:58;14.55;;;6.72;;
66575;SDS011;53428;47.686;16.584;2022-12-24T23:45:58;13.88;;;6.80;;
66575;SDS011;53428;47.686;16.584;2022-12-24T23:51:08;8.20;;;4.50;;
66575;SDS011;53428;47.686;16.584;2022-12-24T23:56:10;11.73;;;6.30;;
